Nieuw Amsterdam — PBWQ — position and weather

sailwx.info

Track history (hours):
 
Tides and Currents Weather Stations Pressure Air Temp Water Temp Dewpoint Dewpoint Depression Visibility Wind Speed Wind Dir Waves Ship Positions

Nieuw Amsterdam

Last reported at 2019-Sep-21 11:30 UTC. Time now 2019-Sep-21 11:36 UTC.
Position N 49°19' W 123°32'.

Length 285 m; draft 8 m.

Type: Passenger vessel. MMSI: 246648000.

Date/timePositionNaut miles runAvg speedWind from/ knotsBaromVisibWave heightAir tempDewpointWater temp
2019-Sep-21 11:30N 49°19' W 123°32'612.1
2019-Sep-21 11:00N 49°19' W 123°41'612.5
2019-Sep-21 10:30N 49°21' W 123°51'612.6
2019-Sep-21 10:00N 49°22' W 124°00'612.2
2019-Sep-21 09:30N 49°24' W 124°09'612.5
2019-Sep-21 09:00N 49°26' W 124°18'612.2
2019-Sep-21 08:28N 49°29' W 124°27'612.6
2019-Sep-21 08:00N 49°33' W 124°34'612.2
2019-Sep-21 07:30N 49°37' W 124°40'612.3
2019-Sep-21 07:00N 49°42' W 124°46'612.2
2019-Sep-21 06:30N 49°46' W 124°53'612.2
2019-Sep-21 06:00N 49°51' W 124°59'612.1
2019-Sep-21 05:30N 49°55' W 125°06'612.2
2019-Sep-21 05:00N 49°59' W 125°12'612.0
2019-Sep-21 04:30N 50°05' W 125°16'612.2
2019-Sep-21 04:01N 50°10' W 125°22'6914.4
2019-Sep-20 23:13N 50°42' W 126°57'2316.5
2019-Sep-20 21:50N 50°51' W 127°30'516.3
2019-Sep-20 21:30N 50°54' W 127°38'816.1
2019-Sep-20 21:00N 50°58' W 127°48'612.4
2019-Sep-20 20:31N 51°02' W 127°56'815.3
2019-Sep-20 20:01N 51°07' W 128°06'815.0
2019-Sep-20 19:31N 51°11' W 128°16'715.0
2019-Sep-20 19:01N 51°15' W 128°25'815.7
2019-Sep-20 18:30N 51°20' W 128°35'815.5
2019-Sep-20 18:01N 51°25' W 128°45'815.2
2019-Sep-20 17:31N 51°30' W 128°54'815.5
2019-Sep-20 17:01N 51°36' W 129°01'815.8
2019-Sep-20 16:30N 51°43' W 129°08'815.8
2019-Sep-20 16:00N 51°49' W 129°15'815.9
2019-Sep-20 15:31N 51°56' W 129°22'815.8
2019-Sep-20 15:01N 52°03' W 129°30'815.9
2019-Sep-20 14:30N 52°09' W 129°37'3 6.4
2019-Sep-20 14:00N 52°06' W 129°36'12193.4 170 / 81017.0 0.5
2019-Sep-20 13:56N 52°17' W 129°45'716.3
2019-Sep-20 13:30N 52°23' W 129°51'815.8
2019-Sep-20 13:00N 52°30' W 129°57'816.0
2019-Sep-20 12:30N 52°37' W 130°03'816.1
2019-Sep-20 12:00N 52°44' W 130°10'816.1
2019-Sep-20 11:30N 52°51' W 130°16'815.8
2019-Sep-20 11:00N 52°58' W 130°23'915.5
2019-Sep-20 10:25N 53°06' W 130°30'716.6
2019-Sep-20 10:00N 53°12' W 130°36'135.8 110 / 91018.310.8 13.0 16.0
2019-Sep-20 09:57N 53°13' W 130°37'818.3
2019-Sep-20 09:30N 53°20' W 130°45'918.2
2019-Sep-20 09:00N 53°29' W 130°49'918.2
2019-Sep-20 08:30N 53°37' W 130°53'918.1
2019-Sep-20 08:01N 53°46' W 130°57'918.6
2019-Sep-20 07:30N 53°55' W 131°02'918.2
2019-Sep-20 07:00N 54°04' W 131°01'918.2
2019-Sep-20 06:30N 54°13' W 131°03'917.6
2019-Sep-20 06:00N 54°22' W 131°06'917.5
2019-Sep-20 05:30N 54°30' W 131°13'917.5
2019-Sep-20 04:58N 54°39' W 131°15'918.6
2019-Sep-20 04:30N 54°47' W 131°11'918.9
2019-Sep-20 04:00N 54°56' W 131°07'1019.2
2019-Sep-20 03:30N 55°06' W 131°09'76 5.6
2019-Sep-19 14:00N 56°00' W 132°42'17714.8 190 / 81012.127.0 13.0 17.0
2019-Sep-19 02:00N 58°00' W 136°42'215.6 160 / 421010.8 2.2 11.9 14.1
2019-Sep-19 01:51N 58°02' W 136°43'1818.9
2019-Sep-19 00:52N 58°17' W 136°23'719.1
2019-Sep-19 00:30N 58°19' W 136°10'816.5
2019-Sep-19 00:00N 58°25' W 135°59'611.4
2019-Sep-18 23:30N 58°30' W 136°04'816.1
2019-Sep-18 23:00N 58°38' W 136°06'815.7
2019-Sep-18 22:30N 58°44' W 136°16'713.4
2019-Sep-18 22:00N 58°48' W 136°26'6 1.2
2019-Sep-18 17:12N 58°51' W 136°35'417.1
2019-Sep-18 16:59N 58°49' W 136°29'714.1
2019-Sep-18 16:30N 58°45' W 136°19'714.6
2019-Sep-18 16:01N 58°40' W 136°09'816.9
2019-Sep-18 15:31N 58°32' W 136°04'612.3
2019-Sep-18 15:00N 58°26' W 135°59'5 9.7
2019-Sep-18 14:30N 58°21' W 135°57'611.1
2019-Sep-18 14:00N 58°19' W 135°48'9564.2
2019-Sep-18 14:00N 58°12' W 135°36'5 9.3 110 / 51013.110.8 11.2 15.6
2019-Sep-18 13:30N 58°16' W 135°37'612.3
2019-Sep-18 13:00N 58°14' W 135°26'611.4
2019-Sep-18 12:29N 58°12' W 135°16'77 1.7
2019-Sep-16 15:00N 57°06' W 134°00'5016.6 160 / 111000.210.8 11.6 14.3
2019-Sep-16 12:00N 56°18' W 134°24'13416.6 130 / 15999.210.8 11.5 15.5
2019-Sep-16 03:56N 54°26' W 132°15'819.0
2019-Sep-16 03:30N 54°26' W 132°01'1019.2
2019-Sep-16 03:00N 54°25' W 131°45'918.7
2019-Sep-16 02:30N 54°24' W 131°29'714.9
2019-Sep-16 02:00N 54°22' W 131°16'1020.5
2019-Sep-16 01:30N 54°20' W 130°59'816.3
2019-Sep-16 01:00N 54°12' W 131°02'1020.7
2019-Sep-16 00:30N 54°01' W 130°60'1019.8
2019-Sep-16 00:00N 53°52' W 130°53'1020.2
2019-Sep-15 23:30N 53°46' W 130°40'8620.5
2019-Sep-15 19:20N 52°43' W 129°03'721.5
2019-Sep-15 19:00N 52°38' W 128°55'1021.0
2019-Sep-15 18:31N 52°27' W 128°51'1020.9
2019-Sep-15 18:00N 52°17' W 128°49'1021.0
2019-Sep-15 17:31N 52°07' W 128°46'1020.8
2019-Sep-15 17:01N 51°57' W 128°42'1020.8
2019-Sep-15 16:31N 51°47' W 128°37'1020.3
2019-Sep-15 16:00N 51°37' W 128°33'1020.1
2019-Sep-15 15:31N 51°27' W 128°33'918.8
2019-Sep-15 15:00N 51°18' W 128°31'1020.4
2019-Sep-15 14:30N 51°12' W 128°18'1020.6
2019-Sep-15 14:00N 51°06' W 128°04'1121.2
2019-Sep-15 13:30N 51°00' W 127°50'1121.0
2019-Sep-15 13:00N 50°54' W 127°36'1529.8 110 / 131003.8 5.4 11.5 15.7
2019-Sep-15 12:59N 50°53' W 127°36'8918.2
2019-Sep-15 08:06N 50°20' W 125°26'112.5
2019-Sep-15 08:00N 50°19' W 125°25'918.3
2019-Sep-15 07:30N 50°10' W 125°22'611.8
2019-Sep-15 07:00N 50°05' W 125°17'713.8
2019-Sep-15 06:30N 49°59' W 125°12'815.3
2019-Sep-15 06:00N 49°54' W 125°03'714.3
2019-Sep-15 05:30N 49°49' W 124°55'714.8
2019-Sep-15 05:01N 49°44' W 124°47'714.4
2019-Sep-15 04:30N 49°39' W 124°39'714.2
2019-Sep-15 03:59N 49°33' W 124°31'914.8
2019-Sep-15 03:24N 49°27' W 124°22'614.5
2019-Sep-15 03:00N 49°25' W 124°14'714.1
2019-Sep-15 02:30N 49°23' W 124°03'714.3
2019-Sep-15 02:00N 49°21' W 123°53'713.7
2019-Sep-15 01:30N 49°20' W 123°43'815.0
2019-Sep-15 01:00N 49°19' W 123°31'816.2
2019-Sep-15 00:30N 49°19' W 123°19'714.1
2019-Sep-15 00:00N 49°19' W 123°08'2 2.9
2019-Sep-14 23:27N 49°17' W 123°07'0 0.0
2019-Sep-14 22:59N 49°17' W 123°07'0 0.0
2019-Sep-14 22:25N 49°17' W 123°07'0 0.0
2019-Sep-14 21:58N 49°17' W 123°07'0 0.0
2019-Sep-14 21:29N 49°17' W 123°07'0 0.0
2019-Sep-14 20:59N 49°17' W 123°07'0 0.0
2019-Sep-14 20:25N 49°17' W 123°07'0 0.0
2019-Sep-14 19:57N 49°17' W 123°07'0 0.0
2019-Sep-14 19:30N 49°17' W 123°07'0 0.0
2019-Sep-14 19:00N 49°17' W 123°07'0 0.0
2019-Sep-14 18:28N 49°17' W 123°07'0 0.0
2019-Sep-14 17:57N 49°17' W 123°07'0 0.0
2019-Sep-14 17:27N 49°17' W 123°07'0 0.0
2019-Sep-14 17:00N 49°17' W 123°07'0 0.0
2019-Sep-14 16:30N 49°17' W 123°07'0 0.0
2019-Sep-14 16:00N 49°17' W 123°07'0 0.0
2019-Sep-14 15:30N 49°17' W 123°07'0 0.0
2019-Sep-14 15:00N 49°17' W 123°07'0 0.0
2019-Sep-14 14:30N 49°17' W 123°07'0 0.0
2019-Sep-14 14:00N 49°17' W 123°07'0 0.6
2019-Sep-14 13:30N 49°18' W 123°07'4 7.2
2019-Sep-14 13:00N 49°19' W 123°11'611.6
2019-Sep-14 12:30N 49°19' W 123°20'510.8
2019-Sep-14 12:00N 49°19' W 123°29'611.2
2019-Sep-14 11:30N 49°19' W 123°37'611.3
2019-Sep-14 11:00N 49°20' W 123°46'510.9
2019-Sep-14 10:30N 49°21' W 123°54'5 9.4
2019-Sep-14 10:00N 49°23' W 124°01'5 9.1
2019-Sep-14 09:30N 49°23' W 124°08'4 8.2
2019-Sep-14 09:00N 49°25' W 124°14'3 6.6
2019-Sep-14 08:30N 49°26' W 124°18'3 6.9
2019-Sep-14 08:00N 49°27' W 124°23'3 7.0
2019-Sep-14 07:30N 49°29' W 124°28'4 7.2
2019-Sep-14 07:00N 49°32' W 124°31'3 6.9
2019-Sep-14 06:30N 49°34' W 124°35'4 7.0
2019-Sep-14 06:00N 49°37' W 124°39'4 7.3
2019-Sep-14 05:30N 49°40' W 124°43'4 7.1
2019-Sep-14 05:00N 49°42' W 124°46'3 6.7
2019-Sep-14 04:30N 49°45' W 124°50'3 6.8
2019-Sep-14 04:00N 49°47' W 124°54'3 7.0
2019-Sep-14 03:30N 49°49' W 124°57'4 7.6
2019-Sep-14 03:00N 49°52' W 125°02'4 7.2
2019-Sep-14 02:30N 49°55' W 125°05'4 6.8
2019-Sep-14 01:58N 49°57' W 125°10'4 9.4
2019-Sep-14 01:30N 50°01' W 125°13'611.5
2019-Sep-14 01:00N 50°06' W 125°17'612.4
2019-Sep-14 00:30N 50°11' W 125°22'815.9
2019-Sep-14 00:00N 50°19' W 125°25'815.2
2019-Sep-13 23:29N 50°23' W 125°36'5515.6
2019-Sep-13 19:59N 50°42' W 126°57'1818.8
2019-Sep-13 19:02N 50°49' W 127°23'119.3
2019-Sep-13 18:59N 50°49' W 127°25'918.9
2019-Sep-13 18:31N 50°54' W 127°37'917.0
2019-Sep-13 18:00N 50°58' W 127°48'918.4
2019-Sep-13 17:30N 51°04' W 127°60'1020.3
2019-Sep-13 17:00N 51°10' W 128°13'1019.6
2019-Sep-13 16:31N 51°15' W 128°26'1019.9
2019-Sep-13 16:00N 51°21' W 128°38'1020.0
2019-Sep-13 15:30N 51°27' W 128°51'1019.3
2019-Sep-13 15:00N 51°35' W 129°00'1019.4
2019-Sep-13 14:30N 51°43' W 129°09'1020.0
2019-Sep-13 14:00N 51°52' W 129°18'1020.2
2019-Sep-13 13:30N 52°00' W 129°27'1020.2
2019-Sep-13 13:00N 52°09' W 129°36'1918.7
2019-Sep-13 12:00N 52°24' W 129°54'5721.0 180 / 171010.7 5.4 15.0 19.0
2019-Sep-13 09:17N 53°14' W 130°37'720.1
2019-Sep-13 08:56N 53°21' W 130°43'819.7
2019-Sep-13 08:30N 53°28' W 130°49'1019.7
2019-Sep-13 08:00N 53°38' W 130°52'1019.3
2019-Sep-13 07:30N 53°47' W 130°56'1019.2
2019-Sep-13 07:00N 53°57' W 130°59'1019.7
2019-Sep-13 06:30N 54°06' W 131°01'1020.4
2019-Sep-13 06:00N 54°17' W 131°03'1020.4
2019-Sep-13 05:30N 54°26' W 131°10'1019.5
2019-Sep-13 05:00N 54°35' W 131°17'1019.5
2019-Sep-13 04:29N 54°45' W 131°12'1019.9
2019-Sep-13 04:00N 54°54' W 131°08'1220.2
2019-Sep-13 03:24N 55°06' W 131°09'82 5.7
2019-Sep-12 13:00N 56°06' W 132°48'17613.8 140 / 51008.910.8 15.0 17.0
2019-Sep-12 00:17N 58°17' W 136°24'621.5
2019-Sep-12 00:00N 58°19' W 136°13'918.6
2019-Sep-11 23:30N 58°25' W 135°59'714.1
2019-Sep-11 23:01N 58°31' W 136°04'918.2
2019-Sep-11 22:30N 58°40' W 136°10'714.6
2019-Sep-11 22:00N 58°45' W 136°20'713.7
2019-Sep-11 21:30N 58°49' W 136°31'3 0.7
2019-Sep-11 16:56N 58°51' W 136°35'815.0
2019-Sep-11 16:26N 58°47' W 136°23'613.7
2019-Sep-11 16:00N 58°43' W 136°15'816.2
2019-Sep-11 15:30N 58°37' W 136°05'816.2
2019-Sep-11 15:01N 58°29' W 136°03'612.6
2019-Sep-11 14:30N 58°23' W 135°57'5 9.4
2019-Sep-11 14:00N 58°19' W 135°53'611.9
2019-Sep-11 13:30N 58°17' W 135°42'611.7
2019-Sep-11 12:59N 58°15' W 135°31'511.6
2019-Sep-11 12:30N 58°13' W 135°22'911.7
2019-Sep-11 11:45N 58°10' W 135°06'  
Track history (hours):
 
Tides and Currents Weather Stations Pressure Air Temp Water Temp Dewpoint Dewpoint Depression Visibility Wind Speed Wind Dir Waves Ship Positions

Nieuw Amsterdam

Last reported at 2019-Sep-21 11:30 UTC. Time now 2019-Sep-21 11:36 UTC.
Position N 49°19' W 123°32'.

Length 285 m; draft 8 m.

Type: Passenger vessel. MMSI: 246648000.

Date/timePositionNaut miles runAvg speedWind from/ knotsBaromVisibWave heightAir tempDewpointWater temp
2019-Sep-21 11:30N 49°19' W 123°32'612.1
2019-Sep-21 11:00N 49°19' W 123°41'612.5
2019-Sep-21 10:30N 49°21' W 123°51'612.6
2019-Sep-21 10:00N 49°22' W 124°00'612.2
2019-Sep-21 09:30N 49°24' W 124°09'612.5
2019-Sep-21 09:00N 49°26' W 124°18'612.2
2019-Sep-21 08:28N 49°29' W 124°27'612.6
2019-Sep-21 08:00N 49°33' W 124°34'612.2
2019-Sep-21 07:30N 49°37' W 124°40'612.3
2019-Sep-21 07:00N 49°42' W 124°46'612.2
2019-Sep-21 06:30N 49°46' W 124°53'612.2
2019-Sep-21 06:00N 49°51' W 124°59'612.1
2019-Sep-21 05:30N 49°55' W 125°06'612.2
2019-Sep-21 05:00N 49°59' W 125°12'612.0
2019-Sep-21 04:30N 50°05' W 125°16'612.2
2019-Sep-21 04:01N 50°10' W 125°22'6914.4
2019-Sep-20 23:13N 50°42' W 126°57'2316.5
2019-Sep-20 21:50N 50°51' W 127°30'516.3
2019-Sep-20 21:30N 50°54' W 127°38'816.1
2019-Sep-20 21:00N 50°58' W 127°48'612.4
2019-Sep-20 20:31N 51°02' W 127°56'815.3
2019-Sep-20 20:01N 51°07' W 128°06'815.0
2019-Sep-20 19:31N 51°11' W 128°16'715.0
2019-Sep-20 19:01N 51°15' W 128°25'815.7
2019-Sep-20 18:30N 51°20' W 128°35'815.5
2019-Sep-20 18:01N 51°25' W 128°45'815.2
2019-Sep-20 17:31N 51°30' W 128°54'815.5
2019-Sep-20 17:01N 51°36' W 129°01'815.8
2019-Sep-20 16:30N 51°43' W 129°08'815.8
2019-Sep-20 16:00N 51°49' W 129°15'815.9
2019-Sep-20 15:31N 51°56' W 129°22'815.8
2019-Sep-20 15:01N 52°03' W 129°30'815.9
2019-Sep-20 14:30N 52°09' W 129°37'3 6.4
2019-Sep-20 14:00N 52°06' W 129°36'12193.4 170 / 81017.0 0.5
2019-Sep-20 13:56N 52°17' W 129°45'716.3
2019-Sep-20 13:30N 52°23' W 129°51'815.8
2019-Sep-20 13:00N 52°30' W 129°57'816.0
2019-Sep-20 12:30N 52°37' W 130°03'816.1
2019-Sep-20 12:00N 52°44' W 130°10'816.1
2019-Sep-20 11:30N 52°51' W 130°16'815.8
2019-Sep-20 11:00N 52°58' W 130°23'915.5
2019-Sep-20 10:25N 53°06' W 130°30'716.6
2019-Sep-20 10:00N 53°12' W 130°36'135.8 110 / 91018.310.8 13.0 16.0
2019-Sep-20 09:57N 53°13' W 130°37'818.3
2019-Sep-20 09:30N 53°20' W 130°45'918.2
2019-Sep-20 09:00N 53°29' W 130°49'918.2
2019-Sep-20 08:30N 53°37' W 130°53'918.1
2019-Sep-20 08:01N 53°46' W 130°57'918.6
2019-Sep-20 07:30N 53°55' W 131°02'918.2
2019-Sep-20 07:00N 54°04' W 131°01'918.2
2019-Sep-20 06:30N 54°13' W 131°03'917.6
2019-Sep-20 06:00N 54°22' W 131°06'917.5
2019-Sep-20 05:30N 54°30' W 131°13'917.5
2019-Sep-20 04:58N 54°39' W 131°15'918.6
2019-Sep-20 04:30N 54°47' W 131°11'918.9
2019-Sep-20 04:00N 54°56' W 131°07'1019.2
2019-Sep-20 03:30N 55°06' W 131°09'76 5.6
2019-Sep-19 14:00N 56°00' W 132°42'17714.8 190 / 81012.127.0 13.0 17.0
2019-Sep-19 02:00N 58°00' W 136°42'215.6 160 / 421010.8 2.2 11.9 14.1
2019-Sep-19 01:51N 58°02' W 136°43'1818.9
2019-Sep-19 00:52N 58°17' W 136°23'719.1
2019-Sep-19 00:30N 58°19' W 136°10'816.5
2019-Sep-19 00:00N 58°25' W 135°59'611.4
2019-Sep-18 23:30N 58°30' W 136°04'816.1
2019-Sep-18 23:00N 58°38' W 136°06'815.7
2019-Sep-18 22:30N 58°44' W 136°16'713.4
2019-Sep-18 22:00N 58°48' W 136°26'6 1.2
2019-Sep-18 17:12N 58°51' W 136°35'417.1
2019-Sep-18 16:59N 58°49' W 136°29'714.1
2019-Sep-18 16:30N 58°45' W 136°19'714.6
2019-Sep-18 16:01N 58°40' W 136°09'816.9
2019-Sep-18 15:31N 58°32' W 136°04'612.3
2019-Sep-18 15:00N 58°26' W 135°59'5 9.7
2019-Sep-18 14:30N 58°21' W 135°57'611.1
2019-Sep-18 14:00N 58°19' W 135°48'9564.2
2019-Sep-18 14:00N 58°12' W 135°36'5 9.3 110 / 51013.110.8 11.2 15.6
2019-Sep-18 13:30N 58°16' W 135°37'612.3
2019-Sep-18 13:00N 58°14' W 135°26'611.4
2019-Sep-18 12:29N 58°12' W 135°16'77 1.7
2019-Sep-16 15:00N 57°06' W 134°00'5016.6 160 / 111000.210.8 11.6 14.3
2019-Sep-16 12:00N 56°18' W 134°24'13416.6 130 / 15999.210.8 11.5 15.5
2019-Sep-16 03:56N 54°26' W 132°15'819.0
2019-Sep-16 03:30N 54°26' W 132°01'1019.2
2019-Sep-16 03:00N 54°25' W 131°45'918.7
2019-Sep-16 02:30N 54°24' W 131°29'714.9
2019-Sep-16 02:00N 54°22' W 131°16'1020.5
2019-Sep-16 01:30N 54°20' W 130°59'816.3
2019-Sep-16 01:00N 54°12' W 131°02'1020.7
2019-Sep-16 00:30N 54°01' W 130°60'1019.8
2019-Sep-16 00:00N 53°52' W 130°53'1020.2
2019-Sep-15 23:30N 53°46' W 130°40'8620.5
2019-Sep-15 19:20N 52°43' W 129°03'721.5
2019-Sep-15 19:00N 52°38' W 128°55'1021.0
2019-Sep-15 18:31N 52°27' W 128°51'1020.9
2019-Sep-15 18:00N 52°17' W 128°49'1021.0
2019-Sep-15 17:31N 52°07' W 128°46'1020.8
2019-Sep-15 17:01N 51°57' W 128°42'1020.8
2019-Sep-15 16:31N 51°47' W 128°37'1020.3
2019-Sep-15 16:00N 51°37' W 128°33'1020.1
2019-Sep-15 15:31N 51°27' W 128°33'918.8
2019-Sep-15 15:00N 51°18' W 128°31'1020.4
2019-Sep-15 14:30N 51°12' W 128°18'1020.6
2019-Sep-15 14:00N 51°06' W 128°04'1121.2
2019-Sep-15 13:30N 51°00' W 127°50'1121.0
2019-Sep-15 13:00N 50°54' W 127°36'1529.8 110 / 131003.8 5.4 11.5 15.7
2019-Sep-15 12:59N 50°53' W 127°36'8918.2
2019-Sep-15 08:06N 50°20' W 125°26'112.5
2019-Sep-15 08:00N 50°19' W 125°25'918.3
2019-Sep-15 07:30N 50°10' W 125°22'611.8
2019-Sep-15 07:00N 50°05' W 125°17'713.8
2019-Sep-15 06:30N 49°59' W 125°12'815.3
2019-Sep-15 06:00N 49°54' W 125°03'714.3
2019-Sep-15 05:30N 49°49' W 124°55'714.8
2019-Sep-15 05:01N 49°44' W 124°47'714.4
2019-Sep-15 04:30N 49°39' W 124°39'714.2
2019-Sep-15 03:59N 49°33' W 124°31'914.8
2019-Sep-15 03:24N 49°27' W 124°22'614.5
2019-Sep-15 03:00N 49°25' W 124°14'714.1
2019-Sep-15 02:30N 49°23' W 124°03'714.3
2019-Sep-15 02:00N 49°21' W 123°53'713.7
2019-Sep-15 01:30N 49°20' W 123°43'815.0
2019-Sep-15 01:00N 49°19' W 123°31'816.2
2019-Sep-15 00:30N 49°19' W 123°19'714.1
2019-Sep-15 00:00N 49°19' W 123°08'2 2.9
2019-Sep-14 23:27N 49°17' W 123°07'0 0.0
2019-Sep-14 22:59N 49°17' W 123°07'0 0.0
2019-Sep-14 22:25N 49°17' W 123°07'0 0.0
2019-Sep-14 21:58N 49°17' W 123°07'0 0.0
2019-Sep-14 21:29N 49°17' W 123°07'0 0.0
2019-Sep-14 20:59N 49°17' W 123°07'0 0.0
2019-Sep-14 20:25N 49°17' W 123°07'0 0.0
2019-Sep-14 19:57N 49°17' W 123°07'0 0.0
2019-Sep-14 19:30N 49°17' W 123°07'0 0.0
2019-Sep-14 19:00N 49°17' W 123°07'0 0.0
2019-Sep-14 18:28N 49°17' W 123°07'0 0.0
2019-Sep-14 17:57N 49°17' W 123°07'0 0.0
2019-Sep-14 17:27N 49°17' W 123°07'0 0.0
2019-Sep-14 17:00N 49°17' W 123°07'0 0.0
2019-Sep-14 16:30N 49°17' W 123°07'0 0.0
2019-Sep-14 16:00N 49°17' W 123°07'0 0.0
2019-Sep-14 15:30N 49°17' W 123°07'0 0.0
2019-Sep-14 15:00N 49°17' W 123°07'0 0.0
2019-Sep-14 14:30N 49°17' W 123°07'0 0.0
2019-Sep-14 14:00N 49°17' W 123°07'0 0.6
2019-Sep-14 13:30N 49°18' W 123°07'4 7.2
2019-Sep-14 13:00N 49°19' W 123°11'611.6
2019-Sep-14 12:30N 49°19' W 123°20'510.8
2019-Sep-14 12:00N 49°19' W 123°29'611.2
2019-Sep-14 11:30N 49°19' W 123°37'611.3
2019-Sep-14 11:00N 49°20' W 123°46'510.9
2019-Sep-14 10:30N 49°21' W 123°54'5 9.4
2019-Sep-14 10:00N 49°23' W 124°01'5 9.1
2019-Sep-14 09:30N 49°23' W 124°08'4 8.2
2019-Sep-14 09:00N 49°25' W 124°14'3 6.6
2019-Sep-14 08:30N 49°26' W 124°18'3 6.9
2019-Sep-14 08:00N 49°27' W 124°23'3 7.0
2019-Sep-14 07:30N 49°29' W 124°28'4 7.2
2019-Sep-14 07:00N 49°32' W 124°31'3 6.9
2019-Sep-14 06:30N 49°34' W 124°35'4 7.0
2019-Sep-14 06:00N 49°37' W 124°39'4 7.3
2019-Sep-14 05:30N 49°40' W 124°43'4 7.1
2019-Sep-14 05:00N 49°42' W 124°46'3 6.7
2019-Sep-14 04:30N 49°45' W 124°50'3 6.8
2019-Sep-14 04:00N 49°47' W 124°54'3 7.0
2019-Sep-14 03:30N 49°49' W 124°57'4 7.6
2019-Sep-14 03:00N 49°52' W 125°02'4 7.2
2019-Sep-14 02:30N 49°55' W 125°05'4 6.8
2019-Sep-14 01:58N 49°57' W 125°10'4 9.4
2019-Sep-14 01:30N 50°01' W 125°13'611.5
2019-Sep-14 01:00N 50°06' W 125°17'612.4
2019-Sep-14 00:30N 50°11' W 125°22'815.9
2019-Sep-14 00:00N 50°19' W 125°25'815.2
2019-Sep-13 23:29N 50°23' W 125°36'5515.6
2019-Sep-13 19:59N 50°42' W 126°57'1818.8
2019-Sep-13 19:02N 50°49' W 127°23'119.3
2019-Sep-13 18:59N 50°49' W 127°25'918.9
2019-Sep-13 18:31N 50°54' W 127°37'917.0
2019-Sep-13 18:00N 50°58' W 127°48'918.4
2019-Sep-13 17:30N 51°04' W 127°60'1020.3
2019-Sep-13 17:00N 51°10' W 128°13'1019.6
2019-Sep-13 16:31N 51°15' W 128°26'1019.9
2019-Sep-13 16:00N 51°21' W 128°38'1020.0
2019-Sep-13 15:30N 51°27' W 128°51'1019.3
2019-Sep-13 15:00N 51°35' W 129°00'1019.4
2019-Sep-13 14:30N 51°43' W 129°09'1020.0
2019-Sep-13 14:00N 51°52' W 129°18'1020.2
2019-Sep-13 13:30N 52°00' W 129°27'1020.2
2019-Sep-13 13:00N 52°09' W 129°36'1918.7
2019-Sep-13 12:00N 52°24' W 129°54'5721.0 180 / 171010.7 5.4 15.0 19.0
2019-Sep-13 09:17N 53°14' W 130°37'720.1
2019-Sep-13 08:56N 53°21' W 130°43'819.7
2019-Sep-13 08:30N 53°28' W 130°49'1019.7
2019-Sep-13 08:00N 53°38' W 130°52'1019.3
2019-Sep-13 07:30N 53°47' W 130°56'1019.2
2019-Sep-13 07:00N 53°57' W 130°59'1019.7
2019-Sep-13 06:30N 54°06' W 131°01'1020.4
2019-Sep-13 06:00N 54°17' W 131°03'1020.4
2019-Sep-13 05:30N 54°26' W 131°10'1019.5
2019-Sep-13 05:00N 54°35' W 131°17'1019.5
2019-Sep-13 04:29N 54°45' W 131°12'1019.9
2019-Sep-13 04:00N 54°54' W 131°08'1220.2
2019-Sep-13 03:24N 55°06' W 131°09'82 5.7
2019-Sep-12 13:00N 56°06' W 132°48'17613.8 140 / 51008.910.8 15.0 17.0
2019-Sep-12 00:17N 58°17' W 136°24'621.5
2019-Sep-12 00:00N 58°19' W 136°13'918.6
2019-Sep-11 23:30N 58°25' W 135°59'714.1
2019-Sep-11 23:01N 58°31' W 136°04'918.2
2019-Sep-11 22:30N 58°40' W 136°10'714.6
2019-Sep-11 22:00N 58°45' W 136°20'713.7
2019-Sep-11 21:30N 58°49' W 136°31'3 0.7
2019-Sep-11 16:56N 58°51' W 136°35'815.0
2019-Sep-11 16:26N 58°47' W 136°23'613.7
2019-Sep-11 16:00N 58°43' W 136°15'816.2
2019-Sep-11 15:30N 58°37' W 136°05'816.2
2019-Sep-11 15:01N 58°29' W 136°03'612.6
2019-Sep-11 14:30N 58°23' W 135°57'5 9.4
2019-Sep-11 14:00N 58°19' W 135°53'611.9
2019-Sep-11 13:30N 58°17' W 135°42'611.7
2019-Sep-11 12:59N 58°15' W 135°31'511.6
2019-Sep-11 12:30N 58°13' W 135°22'911.7
2019-Sep-11 11:45N 58°10' W 135°06'  

Dump ship's entire track history